sensor_id;sensor_type;location;lat;lon;timestamp;temperature;humidity
21787;DHT22;11055;50.870;4.316;2023-04-25T00:02:18;10.70;99.90
21787;DHT22;11055;50.870;4.316;2023-04-25T00:04:43;10.60;99.90
21787;DHT22;11055;50.870;4.316;2023-04-25T00:07:10;10.40;99.90
21787;DHT22;11055;50.870;4.316;2023-04-25T00:09:36;10.40;99.90
21787;DHT22;11055;50.870;4.316;2023-04-25T00:12:01;10.50;99.90
21787;DHT22;11055;50.870;4.316;2023-04-25T00:14:27;10.60;99.90
21787;DHT22;11055;50.870;4.316;2023-04-25T00:16:53;10.80;99.90
21787;DHT22;11055;50.870;4.316;2023-04-25T00:19:19;10.90;99.90
21787;DHT22;11055;50.870;4.316;2023-04-25T00:21:45;10.80;99.90
21787;DHT22;11055;50.870;4.316;2023-04-25T00:24:12;10.70;99.90
21787;DHT22;11055;50.870;4.316;2023-04-25T00:26:38;10.90;99.90
21787;DHT22;11055;50.870;4.316;2023-04-25T00:29:03;10.80;99.90
21787;DHT22;11055;50.870;4.316;2023-04-25T00:31:29;10.80;99.90
21787;DHT22;11055;50.870;4.316;2023-04-25T00:33:55;10.70;99.90
21787;DHT22;11055;50.870;4.316;2023-04-25T00:36:21;10.50;99.90
21787;DHT22;11055;50.870;4.316;2023-04-25T00:38:47;10.40;99.90
21787;DHT22;11055;50.870;4.316;2023-04-25T00:41:13;10.30;99.90
21787;DHT22;11055;50.870;4.316;2023-04-25T00:43:40;10.40;99.90
21787;DHT22;11055;50.870;4.316;2023-04-25T00:46:06;10.40;99.90
21787;DHT22;11055;50.870;4.316;2023-04-25T00:48:31;10.40;99.90
21787;DHT22;11055;50.870;4.316;2023-04-25T00:50:58;10.40;99.90
21787;DHT22;11055;50.870;4.316;2023-04-25T00:53:26;10.50;99.90
21787;DHT22;11055;50.870;4.316;2023-04-25T00:55:53;10.60;99.90
21787;DHT22;11055;50.870;4.316;2023-04-25T00:58:20;10.70;99.90
21787;DHT22;11055;50.870;4.316;2023-04-25T01:00:47;10.70;99.90
21787;DHT22;11055;50.870;4.316;2023-04-25T01:03:14;10.80;99.90
21787;DHT22;11055;50.870;4.316;2023-04-25T01:05:42;10.70;99.90
21787;DHT22;11055;50.870;4.316;2023-04-25T01:08:08;10.60;99.90
21787;DHT22;11055;50.870;4.316;2023-04-25T01:10:34;10.70;99.90
21787;DHT22;11055;50.870;4.316;2023-04-25T01:13:00;10.70;99.90
21787;DHT22;11055;50.870;4.316;2023-04-25T01:15:25;10.70;99.90
21787;DHT22;11055;50.870;4.316;2023-04-25T01:17:51;10.60;99.90
21787;DHT22;11055;50.870;4.316;2023-04-25T01:20:20;10.40;99.90
21787;DHT22;11055;50.870;4.316;2023-04-25T01:22:46;10.40;99.90
21787;DHT22;11055;50.870;4.316;2023-04-25T01:25:12;10.40;99.90
21787;DHT22;11055;50.870;4.316;2023-04-25T01:27:38;10.40;99.90
21787;DHT22;11055;50.870;4.316;2023-04-25T01:30:05;10.40;99.90
21787;DHT22;11055;50.870;4.316;2023-04-25T01:32:33;10.20;99.90
21787;DHT22;11055;50.870;4.316;2023-04-25T01:35:05;10.20;99.90
21787;DHT22;11055;50.870;4.316;2023-04-25T01:37:36;10.30;99.90
21787;DHT22;11055;50.870;4.316;2023-04-25T01:40:02;10.40;99.90
21787;DHT22;11055;50.870;4.316;2023-04-25T01:42:28;10.40;99.90
21787;DHT22;11055;50.870;4.316;2023-04-25T01:44:53;10.30;99.90
21787;DHT22;11055;50.870;4.316;2023-04-25T01:47:19;10.20;99.90
21787;DHT22;11055;50.870;4.316;2023-04-25T01:49:45;9.80;99.90
21787;DHT22;11055;50.870;4.316;2023-04-25T01:52:10;9.60;99.90
21787;DHT22;11055;50.870;4.316;2023-04-25T01:54:36;9.50;99.90
21787;DHT22;11055;50.870;4.316;2023-04-25T01:57:02;9.60;99.90
21787;DHT22;11055;50.870;4.316;2023-04-25T01:59:27;9.80;99.90
21787;DHT22;11055;50.870;4.316;2023-04-25T02:01:53;9.90;99.90
21787;DHT22;11055;50.870;4.316;2023-04-25T02:04:19;9.90;99.90
21787;DHT22;11055;50.870;4.316;2023-04-25T02:06:44;10.00;99.90
21787;DHT22;11055;50.870;4.316;2023-04-25T02:09:10;9.90;99.90
21787;DHT22;11055;50.870;4.316;2023-04-25T02:11:36;9.90;99.90
21787;DHT22;11055;50.870;4.316;2023-04-25T02:14:01;9.90;99.90
21787;DHT22;11055;50.870;4.316;2023-04-25T02:16:27;9.80;99.90
21787;DHT22;11055;50.870;4.316;2023-04-25T02:18:52;9.80;99.90
21787;DHT22;11055;50.870;4.316;2023-04-25T02:21:18;9.70;99.90
21787;DHT22;11055;50.870;4.316;2023-04-25T02:23:44;9.80;99.90
21787;DHT22;11055;50.870;4.316;2023-04-25T02:26:14;9.70;99.90
21787;DHT22;11055;50.870;4.316;2023-04-25T02:28:39;9.80;99.90
21787;DHT22;11055;50.870;4.316;2023-04-25T02:31:05;10.00;99.90
21787;DHT22;11055;50.870;4.316;2023-04-25T02:33:31;9.70;99.90
21787;DHT22;11055;50.870;4.316;2023-04-25T02:35:58;9.50;99.90
21787;DHT22;11055;50.870;4.316;2023-04-25T02:38:23;9.40;99.90
21787;DHT22;11055;50.870;4.316;2023-04-25T02:40:49;9.30;99.90
21787;DHT22;11055;50.870;4.316;2023-04-25T02:43:14;9.30;99.90
21787;DHT22;11055;50.870;4.316;2023-04-25T02:45:41;9.40;99.90
21787;DHT22;11055;50.870;4.316;2023-04-25T02:48:07;9.50;99.90
21787;DHT22;11055;50.870;4.316;2023-04-25T02:50:32;9.50;99.90
21787;DHT22;11055;50.870;4.316;2023-04-25T02:52:58;9.50;99.90
21787;DHT22;11055;50.870;4.316;2023-04-25T02:55:23;9.50;99.90
21787;DHT22;11055;50.870;4.316;2023-04-25T02:57:49;9.10;99.90
21787;DHT22;11055;50.870;4.316;2023-04-25T03:00:15;9.40;99.90
21787;DHT22;11055;50.870;4.316;2023-04-25T03:02:41;9.30;99.90
21787;DHT22;11055;50.870;4.316;2023-04-25T03:05:07;9.40;99.90
21787;DHT22;11055;50.870;4.316;2023-04-25T03:07:32;9.50;99.90
21787;DHT22;11055;50.870;4.316;2023-04-25T03:09:58;9.50;99.90
21787;DHT22;11055;50.870;4.316;2023-04-25T03:12:24;9.40;99.90
21787;DHT22;11055;50.870;4.316;2023-04-25T03:14:50;9.40;99.90
21787;DHT22;11055;50.870;4.316;2023-04-25T03:17:15;9.30;99.90
21787;DHT22;11055;50.870;4.316;2023-04-25T03:19:41;9.30;99.90
21787;DHT22;11055;50.870;4.316;2023-04-25T03:22:07;9.30;99.90
21787;DHT22;11055;50.870;4.316;2023-04-25T03:24:32;9.30;99.90
21787;DHT22;11055;50.870;4.316;2023-04-25T03:26:58;9.20;99.90
21787;DHT22;11055;50.870;4.316;2023-04-25T03:29:23;9.10;99.90
21787;DHT22;11055;50.870;4.316;2023-04-25T03:31:51;9.00;99.90
21787;DHT22;11055;50.870;4.316;2023-04-25T03:34:17;9.10;99.90
21787;DHT22;11055;50.870;4.316;2023-04-25T03:36:43;9.00;99.90
21787;DHT22;11055;50.870;4.316;2023-04-25T03:39:08;9.00;99.90
21787;DHT22;11055;50.870;4.316;2023-04-25T03:41:34;9.20;99.90
21787;DHT22;11055;50.870;4.316;2023-04-25T03:43:59;9.10;99.90
21787;DHT22;11055;50.870;4.316;2023-04-25T03:46:25;9.00;99.90
21787;DHT22;11055;50.870;4.316;2023-04-25T03:48:51;8.80;99.90
21787;DHT22;11055;50.870;4.316;2023-04-25T03:51:16;8.80;99.90
21787;DHT22;11055;50.870;4.316;2023-04-25T03:53:42;8.80;99.90
21787;DHT22;11055;50.870;4.316;2023-04-25T03:56:07;8.70;99.90
21787;DHT22;11055;50.870;4.316;2023-04-25T03:58:34;8.70;99.90
21787;DHT22;11055;50.870;4.316;2023-04-25T04:01:00;8.60;99.90
21787;DHT22;11055;50.870;4.316;2023-04-25T04:03:28;8.70;99.90
21787;DHT22;11055;50.870;4.316;2023-04-25T04:05:53;8.70;99.90
21787;DHT22;11055;50.870;4.316;2023-04-25T04:08:19;8.90;99.90
21787;DHT22;11055;50.870;4.316;2023-04-25T04:10:45;9.00;99.90
21787;DHT22;11055;50.870;4.316;2023-04-25T04:13:10;8.60;99.90
21787;DHT22;11055;50.870;4.316;2023-04-25T04:15:36;8.80;99.90
21787;DHT22;11055;50.870;4.316;2023-04-25T04:18:02;8.70;99.90
21787;DHT22;11055;50.870;4.316;2023-04-25T04:20:29;8.70;99.90
21787;DHT22;11055;50.870;4.316;2023-04-25T04:22:55;8.60;99.90
21787;DHT22;11055;50.870;4.316;2023-04-25T04:25:21;8.80;99.90
21787;DHT22;11055;50.870;4.316;2023-04-25T04:27:46;8.80;99.90
21787;DHT22;11055;50.870;4.316;2023-04-25T04:30:12;8.80;99.90
21787;DHT22;11055;50.870;4.316;2023-04-25T04:32:38;9.00;99.90
21787;DHT22;11055;50.870;4.316;2023-04-25T04:35:04;8.90;99.90
21787;DHT22;11055;50.870;4.316;2023-04-25T04:37:32;9.00;99.90
21787;DHT22;11055;50.870;4.316;2023-04-25T04:39:58;9.00;99.90
21787;DHT22;11055;50.870;4.316;2023-04-25T04:42:23;9.00;99.90
21787;DHT22;11055;50.870;4.316;2023-04-25T04:44:50;9.00;99.90
21787;DHT22;11055;50.870;4.316;2023-04-25T04:47:17;8.70;99.90
21787;DHT22;11055;50.870;4.316;2023-04-25T04:49:43;8.80;99.90
21787;DHT22;11055;50.870;4.316;2023-04-25T04:52:09;8.80;99.90
21787;DHT22;11055;50.870;4.316;2023-04-25T04:54:35;8.70;99.90
21787;DHT22;11055;50.870;4.316;2023-04-25T04:57:01;8.50;99.90
21787;DHT22;11055;50.870;4.316;2023-04-25T04:59:27;8.10;99.90
21787;DHT22;11055;50.870;4.316;2023-04-25T05:01:52;8.40;99.90
21787;DHT22;11055;50.870;4.316;2023-04-25T05:04:18;8.30;99.90
21787;DHT22;11055;50.870;4.316;2023-04-25T05:06:44;8.30;99.90
21787;DHT22;11055;50.870;4.316;2023-04-25T05:09:11;8.40;99.90
21787;DHT22;11055;50.870;4.316;2023-04-25T05:11:36;8.40;99.90
21787;DHT22;11055;50.870;4.316;2023-04-25T05:14:02;8.60;99.90
21787;DHT22;11055;50.870;4.316;2023-04-25T05:16:29;8.60;99.90
21787;DHT22;11055;50.870;4.316;2023-04-25T05:18:55;8.50;99.90
21787;DHT22;11055;50.870;4.316;2023-04-25T05:21:21;8.50;99.90
21787;DHT22;11055;50.870;4.316;2023-04-25T05:23:48;8.60;99.90
21787;DHT22;11055;50.870;4.316;2023-04-25T05:26:13;8.80;99.90
21787;DHT22;11055;50.870;4.316;2023-04-25T05:28:40;8.80;99.90
21787;DHT22;11055;50.870;4.316;2023-04-25T05:31:06;8.80;99.90
21787;DHT22;11055;50.870;4.316;2023-04-25T05:33:32;9.00;99.90
21787;DHT22;11055;50.870;4.316;2023-04-25T05:35:58;9.10;99.90
21787;DHT22;11055;50.870;4.316;2023-04-25T05:38:24;9.30;99.90
21787;DHT22;11055;50.870;4.316;2023-04-25T05:40:50;9.20;99.90
21787;DHT22;11055;50.870;4.316;2023-04-25T05:43:15;9.30;99.90
21787;DHT22;11055;50.870;4.316;2023-04-25T05:45:41;9.40;99.90
21787;DHT22;11055;50.870;4.316;2023-04-25T05:48:06;9.50;99.90
21787;DHT22;11055;50.870;4.316;2023-04-25T05:50:32;9.50;99.90
21787;DHT22;11055;50.870;4.316;2023-04-25T05:52:58;9.50;99.90
21787;DHT22;11055;50.870;4.316;2023-04-25T05:55:24;9.50;99.90
21787;DHT22;11055;50.870;4.316;2023-04-25T05:57:50;9.60;99.90
21787;DHT22;11055;50.870;4.316;2023-04-25T06:00:15;9.50;99.90
21787;DHT22;11055;50.870;4.316;2023-04-25T06:02:41;9.50;99.90
21787;DHT22;11055;50.870;4.316;2023-04-25T06:05:08;9.50;99.90
21787;DHT22;11055;50.870;4.316;2023-04-25T06:07:33;9.70;99.90
21787;DHT22;11055;50.870;4.316;2023-04-25T06:09:59;9.70;99.90
21787;DHT22;11055;50.870;4.316;2023-04-25T06:12:26;9.80;99.90
21787;DHT22;11055;50.870;4.316;2023-04-25T06:14:52;9.90;99.90
21787;DHT22;11055;50.870;4.316;2023-04-25T06:17:17;10.00;99.90
21787;DHT22;11055;50.870;4.316;2023-04-25T06:19:44;10.10;99.90
21787;DHT22;11055;50.870;4.316;2023-04-25T06:22:10;10.10;99.90
21787;DHT22;11055;50.870;4.316;2023-04-25T06:24:36;10.00;99.90
21787;DHT22;11055;50.870;4.316;2023-04-25T06:27:01;10.10;99.90
21787;DHT22;11055;50.870;4.316;2023-04-25T06:29:28;10.10;99.90
21787;DHT22;11055;50.870;4.316;2023-04-25T06:31:53;9.90;99.90
21787;DHT22;11055;50.870;4.316;2023-04-25T06:34:20;9.50;99.90
21787;DHT22;11055;50.870;4.316;2023-04-25T06:36:46;9.30;99.90
21787;DHT22;11055;50.870;4.316;2023-04-25T06:39:11;9.30;99.90
21787;DHT22;11055;50.870;4.316;2023-04-25T06:41:37;9.30;99.90
21787;DHT22;11055;50.870;4.316;2023-04-25T06:44:03;9.20;99.90
21787;DHT22;11055;50.870;4.316;2023-04-25T06:46:29;9.40;99.90
21787;DHT22;11055;50.870;4.316;2023-04-25T06:48:54;9.50;99.90
21787;DHT22;11055;50.870;4.316;2023-04-25T06:51:20;9.60;99.90
21787;DHT22;11055;50.870;4.316;2023-04-25T06:53:46;9.70;99.90
21787;DHT22;11055;50.870;4.316;2023-04-25T06:56:12;9.80;99.90
21787;DHT22;11055;50.870;4.316;2023-04-25T06:58:37;9.70;99.90
21787;DHT22;11055;50.870;4.316;2023-04-25T07:01:03;9.90;99.90
21787;DHT22;11055;50.870;4.316;2023-04-25T07:03:29;10.00;99.90
21787;DHT22;11055;50.870;4.316;2023-04-25T07:05:55;10.10;99.90
21787;DHT22;11055;50.870;4.316;2023-04-25T07:08:21;10.10;99.90
21787;DHT22;11055;50.870;4.316;2023-04-25T07:10:46;10.30;99.90
21787;DHT22;11055;50.870;4.316;2023-04-25T07:13:12;10.20;99.90
21787;DHT22;11055;50.870;4.316;2023-04-25T07:15:38;10.10;99.90
21787;DHT22;11055;50.870;4.316;2023-04-25T07:18:03;10.10;99.90
21787;DHT22;11055;50.870;4.316;2023-04-25T07:20:29;10.20;99.90
21787;DHT22;11055;50.870;4.316;2023-04-25T07:22:57;10.10;99.90
21787;DHT22;11055;50.870;4.316;2023-04-25T07:25:23;10.10;99.90
21787;DHT22;11055;50.870;4.316;2023-04-25T07:27:49;10.20;99.90
21787;DHT22;11055;50.870;4.316;2023-04-25T07:30:17;10.00;99.90
21787;DHT22;11055;50.870;4.316;2023-04-25T07:32:43;10.00;99.90
21787;DHT22;11055;50.870;4.316;2023-04-25T07:35:09;9.80;99.90
21787;DHT22;11055;50.870;4.316;2023-04-25T07:37:35;10.10;99.90
21787;DHT22;11055;50.870;4.316;2023-04-25T07:40:03;10.00;99.90
21787;DHT22;11055;50.870;4.316;2023-04-25T07:42:29;10.10;99.90
21787;DHT22;11055;50.870;4.316;2023-04-25T07:44:55;10.10;99.90
21787;DHT22;11055;50.870;4.316;2023-04-25T07:47:21;10.10;99.90
21787;DHT22;11055;50.870;4.316;2023-04-25T07:49:47;10.30;99.90
21787;DHT22;11055;50.870;4.316;2023-04-25T07:52:12;10.30;99.90
21787;DHT22;11055;50.870;4.316;2023-04-25T07:54:38;10.30;99.90
21787;DHT22;11055;50.870;4.316;2023-04-25T07:57:04;10.40;99.90
21787;DHT22;11055;50.870;4.316;2023-04-25T07:59:39;10.00;99.90
21787;DHT22;11055;50.870;4.316;2023-04-25T08:02:05;10.20;99.90
21787;DHT22;11055;50.870;4.316;2023-04-25T08:04:31;10.10;99.90
21787;DHT22;11055;50.870;4.316;2023-04-25T08:06:56;10.10;99.90
21787;DHT22;11055;50.870;4.316;2023-04-25T08:09:22;10.30;99.90
21787;DHT22;11055;50.870;4.316;2023-04-25T08:11:48;10.50;99.90
21787;DHT22;11055;50.870;4.316;2023-04-25T08:14:14;10.70;99.90
21787;DHT22;11055;50.870;4.316;2023-04-25T08:16:40;10.50;99.90
21787;DHT22;11055;50.870;4.316;2023-04-25T08:19:06;10.10;99.90
21787;DHT22;11055;50.870;4.316;2023-04-25T08:21:31;10.10;99.90
21787;DHT22;11055;50.870;4.316;2023-04-25T08:23:58;10.40;99.90
21787;DHT22;11055;50.870;4.316;2023-04-25T08:26:24;10.40;99.90
21787;DHT22;11055;50.870;4.316;2023-04-25T08:28:50;10.40;99.90
21787;DHT22;11055;50.870;4.316;2023-04-25T08:31:16;10.20;99.90
21787;DHT22;11055;50.870;4.316;2023-04-25T08:33:42;10.20;99.90
21787;DHT22;11055;50.870;4.316;2023-04-25T08:36:09;10.10;99.90
21787;DHT22;11055;50.870;4.316;2023-04-25T08:38:34;10.00;99.90
21787;DHT22;11055;50.870;4.316;2023-04-25T08:41:02;9.80;99.90
21787;DHT22;11055;50.870;4.316;2023-04-25T08:43:29;9.80;99.90
21787;DHT22;11055;50.870;4.316;2023-04-25T08:45:59;10.00;99.90
21787;DHT22;11055;50.870;4.316;2023-04-25T08:48:27;10.30;99.90
21787;DHT22;11055;50.870;4.316;2023-04-25T08:50:55;10.60;99.90
21787;DHT22;11055;50.870;4.316;2023-04-25T08:53:27;11.00;99.90
21787;DHT22;11055;50.870;4.316;2023-04-25T08:55:56;11.60;99.90
21787;DHT22;11055;50.870;4.316;2023-04-25T08:58:22;11.40;99.90
21787;DHT22;11055;50.870;4.316;2023-04-25T09:00:49;11.40;99.90
21787;DHT22;11055;50.870;4.316;2023-04-25T09:03:15;11.30;99.90
21787;DHT22;11055;50.870;4.316;2023-04-25T09:05:42;11.40;99.90
21787;DHT22;11055;50.870;4.316;2023-04-25T09:08:09;11.50;99.90
21787;DHT22;11055;50.870;4.316;2023-04-25T09:10:35;11.40;99.90
21787;DHT22;11055;50.870;4.316;2023-04-25T09:13:27;11.50;99.90
21787;DHT22;11055;50.870;4.316;2023-04-25T09:15:54;11.20;99.90
21787;DHT22;11055;50.870;4.316;2023-04-25T09:18:34;10.60;99.90
21787;DHT22;11055;50.870;4.316;2023-04-25T09:21:11;10.30;99.90
21787;DHT22;11055;50.870;4.316;2023-04-25T09:26:07;10.00;99.90
21787;DHT22;11055;50.870;4.316;2023-04-25T09:28:33;10.10;99.90
21787;DHT22;11055;50.870;4.316;2023-04-25T09:31:00;10.20;99.90
21787;DHT22;11055;50.870;4.316;2023-04-25T09:33:30;10.30;99.90
21787;DHT22;11055;50.870;4.316;2023-04-25T09:36:04;10.40;99.90
21787;DHT22;11055;50.870;4.316;2023-04-25T09:38:31;10.60;99.90
21787;DHT22;11055;50.870;4.316;2023-04-25T09:40:57;11.10;99.90
21787;DHT22;11055;50.870;4.316;2023-04-25T09:43:24;11.70;99.90
21787;DHT22;11055;50.870;4.316;2023-04-25T09:45:51;12.60;99.90
21787;DHT22;11055;50.870;4.316;2023-04-25T09:48:20;13.80;99.90
21787;DHT22;11055;50.870;4.316;2023-04-25T09:51:13;14.50;99.90
21787;DHT22;11055;50.870;4.316;2023-04-25T09:53:44;14.30;99.90
21787;DHT22;11055;50.870;4.316;2023-04-25T09:56:12;14.10;99.90
21787;DHT22;11055;50.870;4.316;2023-04-25T09:58:39;14.80;99.10
21787;DHT22;11055;50.870;4.316;2023-04-25T10:01:09;15.30;99.60
21787;DHT22;11055;50.870;4.316;2023-04-25T10:03:40;15.30;96.20
21787;DHT22;11055;50.870;4.316;2023-04-25T10:06:14;14.30;96.60
21787;DHT22;11055;50.870;4.316;2023-04-25T10:08:43;14.10;97.50
21787;DHT22;11055;50.870;4.316;2023-04-25T10:11:10;15.00;96.20
21787;DHT22;11055;50.870;4.316;2023-04-25T10:13:36;16.00;92.50
21787;DHT22;11055;50.870;4.316;2023-04-25T10:16:03;16.90;89.30
21787;DHT22;11055;50.870;4.316;2023-04-25T10:18:32;17.80;80.30
21787;DHT22;11055;50.870;4.316;2023-04-25T10:21:00;18.00;75.80
21787;DHT22;11055;50.870;4.316;2023-04-25T10:23:26;18.60;72.30
21787;DHT22;11055;50.870;4.316;2023-04-25T10:25:53;19.20;72.60
21787;DHT22;11055;50.870;4.316;2023-04-25T10:28:20;19.90;70.00
21787;DHT22;11055;50.870;4.316;2023-04-25T10:33:37;19.70;64.80
21787;DHT22;11055;50.870;4.316;2023-04-25T10:36:23;19.70;59.20
21787;DHT22;11055;50.870;4.316;2023-04-25T10:38:50;18.60;62.90
21787;DHT22;11055;50.870;4.316;2023-04-25T10:41:18;18.20;65.50
21787;DHT22;11055;50.870;4.316;2023-04-25T10:43:45;17.20;67.60
21787;DHT22;11055;50.870;4.316;2023-04-25T10:48:47;15.20;76.50
21787;DHT22;11055;50.870;4.316;2023-04-25T10:51:22;14.20;81.90
21787;DHT22;11055;50.870;4.316;2023-04-25T10:54:02;13.90;85.90
21787;DHT22;11055;50.870;4.316;2023-04-25T11:01:52;12.40;99.90
21787;DHT22;11055;50.870;4.316;2023-04-25T11:04:22;12.10;99.90
21787;DHT22;11055;50.870;4.316;2023-04-25T11:07:00;11.90;99.90
21787;DHT22;11055;50.870;4.316;2023-04-25T11:09:29;11.70;99.90
21787;DHT22;11055;50.870;4.316;2023-04-25T11:11:57;11.50;99.90
21787;DHT22;11055;50.870;4.316;2023-04-25T11:14:24;12.10;99.90
21787;DHT22;11055;50.870;4.316;2023-04-25T11:16:53;14.60;99.90
21787;DHT22;11055;50.870;4.316;2023-04-25T11:19:21;16.60;95.50
21787;DHT22;11055;50.870;4.316;2023-04-25T11:21:47;18.40;87.90
21787;DHT22;11055;50.870;4.316;2023-04-25T11:24:15;18.70;80.30
21787;DHT22;11055;50.870;4.316;2023-04-25T11:26:42;17.30;79.60
21787;DHT22;11055;50.870;4.316;2023-04-25T11:29:08;16.70;84.50
21787;DHT22;11055;50.870;4.316;2023-04-25T11:31:35;16.80;85.90
21787;DHT22;11055;50.870;4.316;2023-04-25T11:34:01;16.50;84.50
21787;DHT22;11055;50.870;4.316;2023-04-25T11:36:27;15.30;90.00
21787;DHT22;11055;50.870;4.316;2023-04-25T11:38:53;15.10;92.40
21787;DHT22;11055;50.870;4.316;2023-04-25T11:41:22;15.10;91.20
21787;DHT22;11055;50.870;4.316;2023-04-25T11:43:49;15.40;91.30
21787;DHT22;11055;50.870;4.316;2023-04-25T11:46:23;15.50;91.00
21787;DHT22;11055;50.870;4.316;2023-04-25T11:48:49;15.70;88.20
21787;DHT22;11055;50.870;4.316;2023-04-25T11:51:16;15.70;87.20
21787;DHT22;11055;50.870;4.316;2023-04-25T11:53:44;15.80;86.70
21787;DHT22;11055;50.870;4.316;2023-04-25T11:56:11;17.20;82.90
21787;DHT22;11055;50.870;4.316;2023-04-25T11:59:05;19.90;73.30
21787;DHT22;11055;50.870;4.316;2023-04-25T12:01:35;21.00;63.00
21787;DHT22;11055;50.870;4.316;2023-04-25T12:04:18;17.80;68.50
21787;DHT22;11055;50.870;4.316;2023-04-25T12:06:46;16.60;77.70
21787;DHT22;11055;50.870;4.316;2023-04-25T12:09:13;20.10;71.30
21787;DHT22;11055;50.870;4.316;2023-04-25T12:11:45;23.80;60.40
21787;DHT22;11055;50.870;4.316;2023-04-25T12:14:34;26.40;50.10
21787;DHT22;11055;50.870;4.316;2023-04-25T12:17:00;24.40;51.30
21787;DHT22;11055;50.870;4.316;2023-04-25T12:19:34;21.80;55.20
21787;DHT22;11055;50.870;4.316;2023-04-25T12:22:01;19.70;57.30
21787;DHT22;11055;50.870;4.316;2023-04-25T12:24:28;18.80;58.10
21787;DHT22;11055;50.870;4.316;2023-04-25T12:27:05;18.40;58.00
21787;DHT22;11055;50.870;4.316;2023-04-25T12:29:33;18.40;57.60
21787;DHT22;11055;50.870;4.316;2023-04-25T12:31:59;17.80;57.60
21787;DHT22;11055;50.870;4.316;2023-04-25T12:34:27;18.30;57.70
21787;DHT22;11055;50.870;4.316;2023-04-25T12:36:53;20.20;55.70
21787;DHT22;11055;50.870;4.316;2023-04-25T12:39:21;24.70;49.50
21787;DHT22;11055;50.870;4.316;2023-04-25T12:41:51;27.10;41.20
21787;DHT22;11055;50.870;4.316;2023-04-25T12:44:21;24.60;44.80
21787;DHT22;11055;50.870;4.316;2023-04-25T12:46:47;25.30;44.50
21787;DHT22;11055;50.870;4.316;2023-04-25T12:49:15;27.00;41.70
21787;DHT22;11055;50.870;4.316;2023-04-25T12:51:42;28.60;36.50
21787;DHT22;11055;50.870;4.316;2023-04-25T12:54:09;28.30;35.70
21787;DHT22;11055;50.870;4.316;2023-04-25T12:56:36;24.70;39.30
21787;DHT22;11055;50.870;4.316;2023-04-25T12:59:03;20.80;45.60
21787;DHT22;11055;50.870;4.316;2023-04-25T13:01:31;19.80;49.50
21787;DHT22;11055;50.870;4.316;2023-04-25T13:03:57;19.40;50.50
21787;DHT22;11055;50.870;4.316;2023-04-25T13:06:24;20.40;48.80
21787;DHT22;11055;50.870;4.316;2023-04-25T13:08:51;22.40;45.50
21787;DHT22;11055;50.870;4.316;2023-04-25T13:11:19;21.20;47.00
21787;DHT22;11055;50.870;4.316;2023-04-25T13:13:46;20.70;47.40
21787;DHT22;11055;50.870;4.316;2023-04-25T13:16:12;20.10;47.70
21787;DHT22;11055;50.870;4.316;2023-04-25T13:18:42;18.70;50.00
21787;DHT22;11055;50.870;4.316;2023-04-25T13:21:09;18.00;50.60
21787;DHT22;11055;50.870;4.316;2023-04-25T13:23:37;20.00;49.60
21787;DHT22;11055;50.870;4.316;2023-04-25T13:26:17;22.00;45.20
21787;DHT22;11055;50.870;4.316;2023-04-25T13:28:42;23.40;42.10
21787;DHT22;11055;50.870;4.316;2023-04-25T13:31:08;26.10;38.60
21787;DHT22;11055;50.870;4.316;2023-04-25T13:33:38;22.60;40.40
21787;DHT22;11055;50.870;4.316;2023-04-25T13:36:04;20.60;42.40
21787;DHT22;11055;50.870;4.316;2023-04-25T13:38:30;18.90;47.40
21787;DHT22;11055;50.870;4.316;2023-04-25T13:40:56;18.30;48.60
21787;DHT22;11055;50.870;4.316;2023-04-25T13:43:22;17.50;49.30
21787;DHT22;11055;50.870;4.316;2023-04-25T13:45:49;17.20;51.90
21787;DHT22;11055;50.870;4.316;2023-04-25T13:48:15;16.80;54.40
21787;DHT22;11055;50.870;4.316;2023-04-25T13:50:40;15.90;58.00
21787;DHT22;11055;50.870;4.316;2023-04-25T13:53:06;15.40;59.60
21787;DHT22;11055;50.870;4.316;2023-04-25T13:55:34;14.90;60.50
21787;DHT22;11055;50.870;4.316;2023-04-25T13:58:01;14.80;61.90
21787;DHT22;11055;50.870;4.316;2023-04-25T14:00:33;14.90;65.00
21787;DHT22;11055;50.870;4.316;2023-04-25T14:02:58;14.90;65.00
21787;DHT22;11055;50.870;4.316;2023-04-25T14:05:25;14.70;63.60
21787;DHT22;11055;50.870;4.316;2023-04-25T14:07:51;14.70;64.20
21787;DHT22;11055;50.870;4.316;2023-04-25T14:10:17;14.40;63.60
21787;DHT22;11055;50.870;4.316;2023-04-25T14:12:43;14.20;66.60
21787;DHT22;11055;50.870;4.316;2023-04-25T14:15:10;14.50;65.50
21787;DHT22;11055;50.870;4.316;2023-04-25T14:17:37;14.70;64.30
21787;DHT22;11055;50.870;4.316;2023-04-25T14:20:04;14.60;62.50
21787;DHT22;11055;50.870;4.316;2023-04-25T14:22:31;14.50;62.80
21787;DHT22;11055;50.870;4.316;2023-04-25T14:24:57;14.30;63.10
21787;DHT22;11055;50.870;4.316;2023-04-25T14:27:23;14.00;63.60
21787;DHT22;11055;50.870;4.316;2023-04-25T14:29:49;13.80;65.40
21787;DHT22;11055;50.870;4.316;2023-04-25T14:32:15;13.60;66.60
21787;DHT22;11055;50.870;4.316;2023-04-25T14:34:41;13.60;67.00
21787;DHT22;11055;50.870;4.316;2023-04-25T14:37:07;13.70;67.70
21787;DHT22;11055;50.870;4.316;2023-04-25T14:39:33;13.90;68.70
21787;DHT22;11055;50.870;4.316;2023-04-25T14:41:58;13.70;71.70
21787;DHT22;11055;50.870;4.316;2023-04-25T14:44:24;13.40;74.30
21787;DHT22;11055;50.870;4.316;2023-04-25T14:46:50;12.60;77.00
21787;DHT22;11055;50.870;4.316;2023-04-25T14:49:17;12.20;81.90
21787;DHT22;11055;50.870;4.316;2023-04-25T14:51:42;12.30;82.70
21787;DHT22;11055;50.870;4.316;2023-04-25T14:54:08;12.60;81.40
21787;DHT22;11055;50.870;4.316;2023-04-25T14:56:34;12.60;81.40
21787;DHT22;11055;50.870;4.316;2023-04-25T14:59:00;12.70;80.30
21787;DHT22;11055;50.870;4.316;2023-04-25T15:01:25;12.50;80.80
21787;DHT22;11055;50.870;4.316;2023-04-25T15:03:53;12.90;82.70
21787;DHT22;11055;50.870;4.316;2023-04-25T15:06:18;12.80;79.90
21787;DHT22;11055;50.870;4.316;2023-04-25T15:08:45;12.80;78.80
21787;DHT22;11055;50.870;4.316;2023-04-25T15:11:12;13.20;78.40
21787;DHT22;11055;50.870;4.316;2023-04-25T15:13:38;13.20;77.30
21787;DHT22;11055;50.870;4.316;2023-04-25T15:16:05;13.10;78.30
21787;DHT22;11055;50.870;4.316;2023-04-25T15:18:33;12.90;76.50
21787;DHT22;11055;50.870;4.316;2023-04-25T15:21:05;12.70;76.20
21787;DHT22;11055;50.870;4.316;2023-04-25T15:23:31;12.30;77.70
21787;DHT22;11055;50.870;4.316;2023-04-25T15:25:57;12.80;76.40
21787;DHT22;11055;50.870;4.316;2023-04-25T15:28:23;13.00;76.90
21787;DHT22;11055;50.870;4.316;2023-04-25T15:30:48;13.30;75.70
21787;DHT22;11055;50.870;4.316;2023-04-25T15:33:14;13.20;73.60
21787;DHT22;11055;50.870;4.316;2023-04-25T15:35:40;13.10;76.50
21787;DHT22;11055;50.870;4.316;2023-04-25T15:38:06;12.90;78.00
21787;DHT22;11055;50.870;4.316;2023-04-25T15:40:33;13.00;79.10
21787;DHT22;11055;50.870;4.316;2023-04-25T15:42:58;13.00;79.40
21787;DHT22;11055;50.870;4.316;2023-04-25T15:45:25;13.00;81.10
21787;DHT22;11055;50.870;4.316;2023-04-25T15:47:52;12.70;78.20